createdAt,value
2022-10-01T00:02:14.777Z,100414.72
2022-10-01T00:04:47.202Z,100412.75
2022-10-01T00:07:16.373Z,100411.09
2022-10-01T00:09:45.646Z,100409.38
2022-10-01T00:12:16.936Z,100409.16
2022-10-01T00:14:48.609Z,100409.16
2022-10-01T00:17:18.139Z,100407.31
2022-10-01T00:19:47.030Z,100395.25
2022-10-01T00:22:15.961Z,100394.78
2022-10-01T00:24:45.534Z,100393.69
2022-10-01T00:27:15.945Z,100393.31
2022-10-01T00:29:45.559Z,100392.47
2022-10-01T00:32:14.604Z,100399.16
2022-10-01T00:34:43.391Z,100387.22
2022-10-01T00:37:12.643Z,100379.31
2022-10-01T00:39:41.452Z,100380.19
2022-10-01T00:42:20.311Z,100372.41
2022-10-01T00:44:50.277Z,100368.88
2022-10-01T00:47:30.656Z,100358.78
2022-10-01T00:50:09.051Z,100357.44
2022-10-01T00:52:42.442Z,100357.44
2022-10-01T00:55:18.321Z,100358.41
2022-10-01T00:57:48.983Z,100356.72
2022-10-01T01:00:17.848Z,100353.53
2022-10-01T01:02:46.596Z,100349.56
2022-10-01T01:05:15.965Z,100339.34
2022-10-01T01:07:50.156Z,100336.66
2022-10-01T01:10:26.547Z,100342.50
2022-10-01T01:13:13.586Z,100335.94
2022-10-01T01:15:51.977Z,100331.78
2022-10-01T01:18:31.349Z,100334.09
2022-10-01T01:21:18.966Z,100324.25
2022-10-01T01:24:23.116Z,100325.72
2022-10-01T01:27:13.822Z,100321.34
2022-10-01T01:29:58.035Z,100312.56
2022-10-01T01:32:33.965Z,100317.44
2022-10-01T01:35:08.480Z,100315.41
2022-10-01T01:37:43.504Z,100313.59
2022-10-01T01:40:16.114Z,100304.81
2022-10-01T01:42:48.492Z,100299.94
2022-10-01T01:45:25.719Z,100292.88
2022-10-01T01:47:58.543Z,100289.69
2022-10-01T01:50:34.870Z,100296.28
2022-10-01T01:53:03.872Z,100284.59
2022-10-01T01:55:36.681Z,100281.53
2022-10-01T01:58:05.657Z,100272.78
2022-10-01T02:00:36.736Z,100266.09
2022-10-01T02:03:06.925Z,100271.47
2022-10-01T02:05:45.621Z,100262.56
2022-10-01T02:08:40.566Z,100272.69
2022-10-01T02:11:25.040Z,100266.84
2022-10-01T02:14:16.088Z,100263.19
2022-10-01T02:16:58.089Z,100265.75
2022-10-01T02:19:39.886Z,100267.00
2022-10-01T02:22:18.646Z,100264.81
2022-10-01T02:24:53.920Z,100268.56
2022-10-01T02:27:30.743Z,100254.59
2022-10-01T02:30:08.128Z,100264.19
2022-10-01T02:32:41.714Z,100253.13
2022-10-01T02:35:16.808Z,100256.41
2022-10-01T02:37:49.440Z,100261.50
2022-10-01T02:40:26.479Z,100258.13
2022-10-01T02:43:03.952Z,100252.88
2022-10-01T02:45:35.757Z,100249.34
2022-10-01T02:48:11.529Z,100246.66
2022-10-01T02:50:50.548Z,100244.00
2022-10-01T02:53:28.831Z,100237.41
2022-10-01T02:55:59.541Z,100237.91
2022-10-01T02:58:27.861Z,100235.00
2022-10-01T03:00:56.700Z,100231.34
2022-10-01T03:03:27.608Z,100221.34
2022-10-01T03:05:56.159Z,100219.53
2022-10-01T03:08:25.426Z,100203.88
2022-10-01T03:10:54.271Z,100208.13
2022-10-01T03:13:23.691Z,100212.72
2022-10-01T03:15:52.964Z,100206.16
2022-10-01T03:18:22.234Z,100199.97
2022-10-01T03:20:52.847Z,100189.25
2022-10-01T03:23:21.556Z,100191.16
2022-10-01T03:25:50.465Z,100181.91
2022-10-01T03:28:19.395Z,100179.22
2022-10-01T03:30:48.309Z,100177.47
2022-10-01T03:33:17.672Z,100168.97
2022-10-01T03:35:46.883Z,100163.63
2022-10-01T03:38:17.445Z,100161.19
2022-10-01T03:40:46.497Z,100161.34
2022-10-01T03:43:15.654Z,100157.09
2022-10-01T03:45:44.414Z,100150.63
2022-10-01T03:48:13.162Z,100154.22
2022-10-01T03:50:42.004Z,100148.19
2022-10-01T03:53:11.644Z,100134.66
2022-10-01T03:55:41.735Z,100137.00
2022-10-01T03:58:10.865Z,100130.28
2022-10-01T04:00:39.855Z,100118.72
2022-10-01T04:03:09.059Z,100125.50
2022-10-01T04:05:38.041Z,100121.28
2022-10-01T04:08:06.788Z,100122.69
2022-10-01T04:10:36.089Z,100119.91
2022-10-01T04:13:07.352Z,100121.13
2022-10-01T04:15:36.562Z,100124.19
2022-10-01T04:18:09.677Z,100119.28
2022-10-01T04:20:40.556Z,100114.13
2022-10-01T04:23:10.162Z,100108.66
2022-10-01T04:25:39.466Z,100115.41
2022-10-01T04:28:13.785Z,100109.19
2022-10-01T04:30:44.999Z,100111.00
2022-10-01T04:33:16.919Z,100095.97
2022-10-01T04:35:46.067Z,100092.59
2022-10-01T04:38:18.371Z,100088.41
2022-10-01T04:40:48.450Z,100088.41
2022-10-01T04:43:19.293Z,100088.66
2022-10-01T04:45:47.915Z,100084.72
2022-10-01T04:48:16.609Z,100076.97
2022-10-01T04:50:45.745Z,100080.81
2022-10-01T04:53:14.648Z,100071.25
2022-10-01T04:55:44.497Z,100072.66
2022-10-01T04:58:13.449Z,100073.22
2022-10-01T05:00:43.841Z,100070.28
2022-10-01T05:03:12.747Z,100066.16
2022-10-01T05:05:41.488Z,100059.09
2022-10-01T05:08:10.536Z,100057.75
2022-10-01T05:10:39.534Z,100055.94
2022-10-01T05:13:08.540Z,100057.16
2022-10-01T05:15:37.992Z,100046.06
2022-10-01T05:18:09.379Z,100041.13
2022-10-01T05:20:39.600Z,100043.59
2022-10-01T05:23:08.388Z,100045.38
2022-10-01T05:25:37.108Z,100045.41
2022-10-01T05:28:05.982Z,100040.31
2022-10-01T05:30:36.100Z,100039.91
2022-10-01T05:33:07.772Z,100043.44
2022-10-01T05:35:36.795Z,100033.53
2022-10-01T05:38:05.727Z,100040.84
2022-10-01T05:40:35.142Z,100033.28
2022-10-01T05:43:07.303Z,100036.94
2022-10-01T05:45:36.055Z,100025.06
2022-10-01T05:48:08.866Z,100032.72
2022-10-01T05:50:44.423Z,100027.22
2022-10-01T05:53:16.271Z,100018.06
2022-10-01T05:55:45.620Z,100025.41
2022-10-01T05:58:15.790Z,100024.81
2022-10-01T06:00:45.430Z,100020.31
2022-10-01T06:03:15.887Z,100011.59
2022-10-01T06:05:46.269Z,100006.22
2022-10-01T06:08:15.400Z,100018.09
2022-10-01T06:10:44.661Z,100000.47
2022-10-01T06:13:17.979Z,100009.19
2022-10-01T06:15:47.869Z,99996.50
2022-10-01T06:18:18.247Z,99988.47
2022-10-01T06:20:47.634Z,99995.53
2022-10-01T06:23:17.180Z,100000.88
2022-10-01T06:25:46.255Z,99988.34
2022-10-01T06:28:15.829Z,99988.75
2022-10-01T06:30:45.151Z,99987.06
2022-10-01T06:33:16.465Z,99982.41
2022-10-01T06:35:49.522Z,99988.44
2022-10-01T06:38:21.485Z,99976.91
2022-10-01T06:40:55.705Z,99977.59
2022-10-01T06:43:26.503Z,99970.97
2022-10-01T06:45:56.044Z,99976.34
2022-10-01T06:48:25.176Z,99971.78
2022-10-01T06:50:58.525Z,99968.69
2022-10-01T06:53:29.838Z,99961.34
2022-10-01T06:55:58.575Z,99952.59
2022-10-01T06:58:27.479Z,99959.09
2022-10-01T07:01:01.792Z,99945.81
2022-10-01T07:03:31.471Z,99941.00
2022-10-01T07:06:08.167Z,99921.06
2022-10-01T07:08:36.863Z,99930.28
2022-10-01T07:11:06.065Z,99921.38
2022-10-01T07:13:34.734Z,99915.41
2022-10-01T07:16:05.369Z,99915.81
2022-10-01T07:18:34.352Z,99906.19
2022-10-01T07:21:04.637Z,99909.59
2022-10-01T07:23:33.485Z,99902.53
2022-10-01T07:26:04.538Z,99902.19
2022-10-01T07:28:33.415Z,99905.34
2022-10-01T07:31:11.480Z,99895.38
2022-10-01T07:33:42.822Z,99884.38
2022-10-01T07:36:13.870Z,99888.88
2022-10-01T07:38:43.713Z,99884.06
2022-10-01T07:41:13.221Z,99876.63
2022-10-01T07:43:43.981Z,99878.22
2022-10-01T07:46:16.122Z,99871.88
2022-10-01T07:48:46.446Z,99880.06
2022-10-01T07:51:18.918Z,99871.88
2022-10-01T07:53:48.093Z,99869.56
2022-10-01T07:56:16.910Z,99857.75
2022-10-01T07:58:45.785Z,99860.28
2022-10-01T08:01:19.215Z,99853.97
2022-10-01T08:03:54.608Z,99860.03
2022-10-01T08:06:25.803Z,99846.91
2022-10-01T08:08:54.642Z,99864.00
2022-10-01T08:11:24.876Z,99846.66
2022-10-01T08:13:57.335Z,99851.66
2022-10-01T08:16:29.367Z,99852.84
2022-10-01T08:18:58.237Z,99858.69
2022-10-01T08:21:30.379Z,99848.81
2022-10-01T08:23:59.819Z,99842.22
2022-10-01T08:26:29.616Z,99850.53
2022-10-01T08:28:58.771Z,99840.78
2022-10-01T08:31:32.873Z,99833.03
2022-10-01T08:34:01.951Z,99836.53
2022-10-01T08:36:36.031Z,99831.97
2022-10-01T08:39:05.432Z,99820.50
2022-10-01T08:41:50.976Z,99828.84
2022-10-01T08:44:27.967Z,99830.94
2022-10-01T08:47:03.210Z,99817.81
2022-10-01T08:49:43.400Z,99812.06
2022-10-01T08:52:24.587Z,99814.47
2022-10-01T08:54:59.195Z,99814.78
2022-10-01T08:57:36.449Z,99815.91
2022-10-01T09:00:14.749Z,99801.94
2022-10-01T09:02:46.608Z,99803.78
2022-10-01T09:05:26.108Z,99786.72
2022-10-01T09:08:24.086Z,99779.97
2022-10-01T09:11:02.711Z,99767.09
2022-10-01T09:13:57.902Z,99760.91
2022-10-01T09:20:05.334Z,99750.19
2022-10-01T09:22:42.152Z,99761.09
2022-10-01T09:25:22.810Z,99755.56
2022-10-01T09:27:53.528Z,99747.81
2022-10-01T09:30:29.335Z,99758.97
2022-10-01T09:33:05.373Z,99756.88
2022-10-01T09:35:44.471Z,99759.13
2022-10-01T09:38:24.299Z,99765.19
2022-10-01T09:40:57.141Z,99760.53
2022-10-01T09:43:31.276Z,99755.72
2022-10-01T09:46:07.383Z,99768.28
2022-10-01T09:48:47.085Z,99769.16
2022-10-01T09:51:22.270Z,99777.34
2022-10-01T09:54:05.422Z,99764.66
2022-10-01T09:56:48.562Z,99757.28
2022-10-01T09:59:28.391Z,99757.28
2022-10-01T10:02:04.051Z,99751.06
2022-10-01T10:04:33.611Z,99759.13
2022-10-01T10:07:08.859Z,99755.59
2022-10-01T10:09:38.726Z,99759.22
2022-10-01T10:12:26.704Z,99755.97
2022-10-01T10:14:59.288Z,99758.91
2022-10-01T10:17:29.977Z,99761.59
2022-10-01T10:20:01.497Z,99750.41
2022-10-01T10:22:34.114Z,99754.69
2022-10-01T10:25:15.746Z,99754.97
2022-10-01T10:28:02.957Z,99759.75
2022-10-01T10:30:32.575Z,99754.53
2022-10-01T10:33:09.000Z,99756.81
2022-10-01T10:35:38.596Z,99752.16
2022-10-01T10:38:09.086Z,99748.91
2022-10-01T10:40:45.848Z,99753.81
2022-10-01T10:43:25.859Z,99755.81
2022-10-01T10:45:56.904Z,99753.41
2022-10-01T10:48:33.128Z,99755.81
2022-10-01T10:51:04.016Z,99753.28
2022-10-01T10:53:54.823Z,99757.91
2022-10-01T10:56:26.238Z,99755.50
2022-10-01T10:59:10.708Z,99752.69
2022-10-01T11:01:45.559Z,99757.31
2022-10-01T11:04:29.827Z,99755.44
2022-10-01T11:07:02.842Z,99757.41
2022-10-01T11:09:48.976Z,99747.38
2022-10-01T11:12:36.832Z,99747.78
2022-10-01T11:15:33.287Z,99735.69
2022-10-01T11:18:25.050Z,99746.59
2022-10-01T11:21:13.441Z,99741.28
2022-10-01T11:24:19.590Z,99737.75
2022-10-01T11:26:59.327Z,99737.88
2022-10-01T11:29:46.414Z,99736.56
2022-10-01T11:32:34.798Z,99738.56
2022-10-01T11:35:42.854Z,99731.88
2022-10-01T11:38:44.611Z,99724.81
2022-10-01T11:41:36.511Z,99735.94
2022-10-01T11:44:16.073Z,99726.66
2022-10-01T11:47:02.268Z,99724.28
2022-10-01T11:49:52.079Z,99738.31
2022-10-01T11:52:38.854Z,99748.75
2022-10-01T11:55:39.116Z,99755.00
2022-10-01T11:58:35.614Z,99753.47
2022-10-01T12:01:10.430Z,99748.03
2022-10-01T12:03:57.790Z,99751.44
2022-10-01T12:06:38.053Z,99761.00
2022-10-01T12:09:19.331Z,99749.88
2022-10-01T12:12:01.551Z,99759.78
2022-10-01T12:14:40.303Z,99757.09
2022-10-01T12:17:20.405Z,99761.88
2022-10-01T12:19:55.004Z,99765.19
2022-10-01T12:22:31.203Z,99756.72
2022-10-01T12:25:03.194Z,99758.38
2022-10-01T12:27:54.850Z,99754.75
2022-10-01T12:30:29.307Z,99762.91
2022-10-01T12:33:45.421Z,99758.22
2022-10-01T12:36:32.581Z,99756.59
2022-10-01T12:39:25.129Z,99742.91
2022-10-01T12:42:14.139Z,99742.41
2022-10-01T12:45:04.435Z,99746.50
2022-10-01T12:47:48.458Z,99727.81
2022-10-01T12:50:33.452Z,99717.03
2022-10-01T12:53:26.958Z,99700.94
2022-10-01T12:56:17.582Z,99689.09
2022-10-01T12:59:26.653Z,99666.13
2022-10-01T13:02:22.785Z,99671.16
2022-10-01T13:05:20.530Z,99673.50
2022-10-01T13:08:06.427Z,99664.97
2022-10-01T13:10:53.811Z,99674.50
2022-10-01T13:13:27.633Z,99662.16
2022-10-01T13:16:12.961Z,99674.16
2022-10-01T13:18:58.568Z,99674.09
2022-10-01T13:21:41.846Z,99655.34
2022-10-01T13:24:20.477Z,99653.00
2022-10-01T13:26:58.401Z,99660.84
2022-10-01T13:29:46.611Z,99646.94
2022-10-01T13:32:38.193Z,99658.13
2022-10-01T13:35:31.620Z,99660.06
2022-10-01T13:38:14.591Z,99652.72
2022-10-01T13:40:44.982Z,99662.03
2022-10-01T13:43:21.175Z,99673.66
2022-10-01T13:45:55.516Z,99676.69
2022-10-01T13:48:29.440Z,99680.13
2022-10-01T13:51:03.180Z,99686.34
2022-10-01T13:53:37.629Z,99678.94
2022-10-01T13:56:07.056Z,99676.56
2022-10-01T13:58:41.582Z,99676.91
2022-10-01T14:01:39.956Z,99665.44
2022-10-01T14:04:25.157Z,99657.78
2022-10-01T14:06:59.560Z,99663.13
2022-10-01T14:09:37.657Z,99666.53
2022-10-01T14:12:33.021Z,99674.56
2022-10-01T14:15:32.511Z,99675.50
2022-10-01T14:18:08.746Z,99677.47
2022-10-01T14:20:53.648Z,99685.00
2022-10-01T14:23:32.769Z,99695.03
2022-10-01T14:26:17.053Z,99689.22
2022-10-01T14:28:58.783Z,99701.28
2022-10-01T14:31:50.792Z,99710.75
2022-10-01T14:34:49.955Z,99708.59
2022-10-01T14:37:21.196Z,99706.69
2022-10-01T14:40:04.223Z,99699.97
2022-10-01T14:42:33.011Z,99705.72
2022-10-01T14:45:01.995Z,99694.22
2022-10-01T14:47:35.683Z,99711.50
2022-10-01T14:50:14.286Z,99712.13
2022-10-01T14:52:51.105Z,99706.72
2022-10-01T14:55:25.931Z,99717.75
2022-10-01T14:57:58.160Z,99718.94
2022-10-01T15:00:33.190Z,99717.81
2022-10-01T15:03:13.690Z,99729.28
2022-10-01T15:05:54.010Z,99732.69
2022-10-01T15:08:37.517Z,99739.16
2022-10-01T15:11:13.210Z,99744.81
2022-10-01T15:13:47.243Z,99741.63
2022-10-01T15:16:19.244Z,99749.75
2022-10-01T15:18:53.797Z,99752.06
2022-10-01T15:21:32.505Z,99747.81
2022-10-01T15:24:04.872Z,99761.47
2022-10-01T15:26:37.593Z,99774.44
2022-10-01T15:29:15.099Z,99766.19
2022-10-01T15:31:46.950Z,99768.56
2022-10-01T15:34:20.564Z,99772.06
2022-10-01T15:36:52.697Z,99777.47
2022-10-01T15:39:32.103Z,99781.34
2022-10-01T15:42:07.266Z,99785.19
2022-10-01T15:44:47.425Z,99785.00
2022-10-01T15:47:29.512Z,99792.44
2022-10-01T15:50:17.889Z,99793.47
2022-10-01T15:53:18.689Z,99798.16
2022-10-01T15:55:52.664Z,99797.13
2022-10-01T15:58:27.098Z,99799.50
2022-10-01T16:01:04.644Z,99806.94
2022-10-01T16:03:37.728Z,99807.78
2022-10-01T16:06:19.988Z,99819.72
2022-10-01T16:09:06.875Z,99819.88
2022-10-01T16:11:55.203Z,99831.50
2022-10-01T16:14:42.391Z,99830.84
2022-10-01T16:17:31.794Z,99831.84
2022-10-01T16:20:23.828Z,99841.47
2022-10-01T16:22:53.613Z,99840.13
2022-10-01T16:25:34.330Z,99846.56
2022-10-01T16:28:06.781Z,99848.41
2022-10-01T16:30:36.346Z,99843.88
2022-10-01T16:33:06.223Z,99858.84
2022-10-01T16:35:38.245Z,99874.69
2022-10-01T16:38:08.496Z,99879.72
2022-10-01T16:40:44.101Z,99883.13
2022-10-01T16:43:23.163Z,99881.59
2022-10-01T16:45:53.467Z,99889.69
2022-10-01T16:48:23.878Z,99886.63
2022-10-01T16:50:53.967Z,99894.69
2022-10-01T16:53:24.939Z,99892.53
2022-10-01T16:55:56.592Z,99907.38
2022-10-01T16:58:28.820Z,99910.06
2022-10-01T17:00:58.211Z,99915.81
2022-10-01T17:03:29.171Z,99916.75
2022-10-01T17:05:59.093Z,99918.75
2022-10-01T17:08:27.964Z,99921.66
2022-10-01T17:11:02.269Z,99940.31
2022-10-01T17:13:34.710Z,99943.34
2022-10-01T17:16:05.106Z,99941.16
2022-10-01T17:18:35.249Z,99942.78
2022-10-01T17:21:05.949Z,99960.97
2022-10-01T17:23:36.280Z,99957.75
2022-10-01T17:26:09.734Z,99963.94
2022-10-01T17:28:38.727Z,99959.06
2022-10-01T17:31:12.164Z,99966.91
2022-10-01T17:33:43.747Z,99969.81
2022-10-01T17:36:13.357Z,99968.81
2022-10-01T17:38:43.064Z,99971.53
2022-10-01T17:41:13.760Z,99985.63
2022-10-01T17:43:42.709Z,99986.97
2022-10-01T17:46:11.800Z,99995.53
2022-10-01T17:48:42.389Z,99994.34
2022-10-01T17:51:15.788Z,99997.75
2022-10-01T17:53:45.729Z,100000.34
2022-10-01T17:56:33.498Z,100005.75
2022-10-01T17:59:08.706Z,100015.44
2022-10-01T18:01:37.319Z,100011.75
2022-10-01T18:04:13.486Z,100024.84
2022-10-01T18:06:44.007Z,100026.41
2022-10-01T18:09:13.013Z,100034.53
2022-10-01T18:11:47.359Z,100046.69
2022-10-01T18:14:16.666Z,100048.47
2022-10-01T18:16:45.650Z,100047.78
2022-10-01T18:22:13.428Z,100063.19
2022-10-01T18:24:43.557Z,100070.03
2022-10-01T18:27:16.461Z,100079.81
2022-10-01T18:29:45.342Z,100088.72
2022-10-01T18:32:20.805Z,100089.41
2022-10-01T18:34:56.209Z,100091.00
2022-10-01T18:37:37.586Z,100090.19
2022-10-01T18:40:17.347Z,100100.41
2022-10-01T18:42:54.075Z,100108.38
2022-10-01T18:45:48.163Z,100123.94
2022-10-01T18:48:52.604Z,100117.94
2022-10-01T18:51:40.157Z,100116.31
2022-10-01T18:54:40.942Z,100120.16
2022-10-01T18:57:28.050Z,100120.47
2022-10-01T19:00:12.409Z,100122.63
2022-10-01T19:03:02.073Z,100134.63
2022-10-01T19:06:40.814Z,100145.59
2022-10-01T19:09:41.400Z,100138.19
2022-10-01T19:12:38.982Z,100146.53
2022-10-01T19:15:24.257Z,100151.53
2022-10-01T19:18:16.695Z,100154.66
2022-10-01T19:21:05.862Z,100149.97
2022-10-01T19:24:24.972Z,100159.47
2022-10-01T19:27:05.133Z,100167.41
2022-10-01T19:30:07.290Z,100166.31
2022-10-01T19:32:46.044Z,100183.03
2022-10-01T19:35:21.045Z,100178.53
2022-10-01T19:37:56.548Z,100184.19
2022-10-01T19:40:36.298Z,100195.22
2022-10-01T19:43:20.073Z,100190.16
2022-10-01T19:45:58.343Z,100201.56
2022-10-01T19:48:45.312Z,100207.34
2022-10-01T19:51:21.131Z,100216.00
2022-10-01T19:54:01.446Z,100222.25
2022-10-01T19:56:40.609Z,100223.94
2022-10-01T19:59:16.012Z,100229.47
2022-10-01T20:01:55.497Z,100224.69
2022-10-01T20:04:38.416Z,100229.22
2022-10-01T20:07:18.797Z,100226.38
2022-10-01T20:09:54.654Z,100239.41
2022-10-01T20:12:37.508Z,100238.13
2022-10-01T20:15:23.893Z,100241.56
2022-10-01T20:18:13.381Z,100252.75
2022-10-01T20:21:03.333Z,100256.56
2022-10-01T20:23:47.016Z,100253.88
2022-10-01T20:26:39.153Z,100255.63
2022-10-01T20:29:43.752Z,100257.44
2022-10-01T20:32:23.635Z,100259.69
2022-10-01T20:35:13.641Z,100276.97
2022-10-01T20:38:08.666Z,100272.44
2022-10-01T20:40:49.655Z,100271.19
2022-10-01T20:43:32.375Z,100276.84
2022-10-01T20:46:11.309Z,100276.84
2022-10-01T20:48:46.530Z,100281.81
2022-10-01T20:51:25.424Z,100288.19
2022-10-01T20:54:04.950Z,100287.34
2022-10-01T20:56:40.285Z,100288.31
2022-10-01T20:59:18.320Z,100291.44
2022-10-01T21:02:02.565Z,100295.25
2022-10-01T21:04:39.091Z,100296.97
2022-10-01T21:07:29.183Z,100305.88
2022-10-01T21:10:04.236Z,100311.38
2022-10-01T21:12:41.381Z,100308.84
2022-10-01T21:15:15.599Z,100316.19
2022-10-01T21:17:59.132Z,100316.50
2022-10-01T21:20:49.785Z,100322.00
2022-10-01T21:23:42.143Z,100342.53
2022-10-01T21:26:25.573Z,100340.78
2022-10-01T21:29:27.414Z,100347.31
2022-10-01T21:32:17.726Z,100357.38
2022-10-01T21:35:01.729Z,100358.47
2022-10-01T21:37:41.421Z,100361.16
2022-10-01T21:40:22.324Z,100374.06
2022-10-01T21:43:02.936Z,100373.75
2022-10-01T21:45:47.499Z,100369.38
2022-10-01T21:48:41.662Z,100384.25
2022-10-01T21:51:19.186Z,100387.19
2022-10-01T21:54:30.059Z,100380.28
2022-10-01T21:57:30.245Z,100393.72
2022-10-01T22:00:19.642Z,100391.41
2022-10-01T22:03:07.713Z,100403.63
2022-10-01T22:05:50.386Z,100406.75
2022-10-01T22:08:49.646Z,100406.75
2022-10-01T22:11:23.509Z,100411.13
2022-10-01T22:13:58.563Z,100415.34
2022-10-01T22:16:36.100Z,100418.59
2022-10-01T22:19:13.018Z,100416.34
2022-10-01T22:21:46.259Z,100422.00
2022-10-01T22:24:20.549Z,100420.59
2022-10-01T22:26:56.307Z,100423.28
2022-10-01T22:29:31.926Z,100435.03
2022-10-01T22:32:06.456Z,100433.78
2022-10-01T22:34:40.384Z,100433.31
2022-10-01T22:37:17.747Z,100427.09
2022-10-01T22:39:54.801Z,100452.00
2022-10-01T22:42:33.276Z,100442.66
2022-10-01T22:45:13.220Z,100433.31
2022-10-01T22:48:14.036Z,100436.75
2022-10-01T22:51:07.808Z,100434.59
2022-10-01T22:54:14.068Z,100435.75
2022-10-01T22:56:56.093Z,100447.63
2022-10-01T22:59:41.280Z,100442.97
2022-10-01T23:02:25.694Z,100450.91
2022-10-01T23:05:13.242Z,100449.81
2022-10-01T23:07:57.853Z,100446.69
2022-10-01T23:10:39.491Z,100441.88
2022-10-01T23:13:32.526Z,100442.16
2022-10-01T23:16:15.203Z,100439.91
2022-10-01T23:19:00.525Z,100447.81
2022-10-01T23:21:45.288Z,100446.38
2022-10-01T23:24:39.608Z,100461.25
2022-10-01T23:27:32.110Z,100459.09
2022-10-01T23:30:11.842Z,100464.59
2022-10-01T23:33:14.291Z,100459.50
2022-10-01T23:35:58.837Z,100470.53
2022-10-01T23:39:10.445Z,100463.53
2022-10-01T23:41:48.174Z,100471.16
2022-10-01T23:44:31.663Z,100481.91
2022-10-01T23:47:07.706Z,100486.19
2022-10-01T23:49:42.610Z,100487.84
2022-10-01T23:52:22.688Z,100489.78
2022-10-01T23:55:27.087Z,100483.75
2022-10-01T23:58:03.347Z,100491.50
